createdAt,value
2023-02-14T00:00:59.226Z,0.10
2023-02-14T00:03:26.234Z,0.10
2023-02-14T00:05:53.132Z,0.10
2023-02-14T00:08:19.992Z,0.00
2023-02-14T00:10:46.827Z,0.00
2023-02-14T00:13:13.869Z,-0.10
2023-02-14T00:15:40.760Z,0.00
2023-02-14T00:18:07.620Z,0.10
2023-02-14T00:20:34.495Z,0.00
2023-02-14T00:23:01.402Z,0.10
2023-02-14T00:25:28.227Z,0.10
2023-02-14T00:27:55.730Z,0.10
2023-02-14T00:30:22.730Z,0.20
2023-02-14T00:32:49.622Z,0.10
2023-02-14T00:35:17.026Z,0.20
2023-02-14T00:37:45.956Z,0.20
2023-02-14T00:40:13.042Z,0.30
2023-02-14T00:42:40.016Z,0.30
2023-02-14T00:45:07.239Z,0.20
2023-02-14T00:47:35.446Z,0.10
2023-02-14T00:50:02.840Z,0.10
2023-02-14T00:52:31.304Z,0.00
2023-02-14T00:54:58.507Z,-0.10
2023-02-14T00:57:25.373Z,-0.10
2023-02-14T00:59:52.322Z,-0.20
2023-02-14T01:02:20.938Z,-0.10
2023-02-14T01:04:47.909Z,0.00
2023-02-14T01:07:14.955Z,0.00
2023-02-14T01:09:42.213Z,0.20
2023-02-14T01:12:09.166Z,0.30
2023-02-14T01:14:36.037Z,0.20
2023-02-14T01:17:02.913Z,0.10
2023-02-14T01:19:29.852Z,-0.10
2023-02-14T01:21:56.701Z,-0.20
2023-02-14T01:24:25.121Z,-0.20
2023-02-14T01:26:52.154Z,-0.20
2023-02-14T01:29:19.092Z,-0.10
2023-02-14T01:31:48.401Z,-0.10
2023-02-14T01:34:15.502Z,0.00
2023-02-14T01:36:42.409Z,0.10
2023-02-14T01:39:13.743Z,0.40
2023-02-14T01:41:42.949Z,0.50
2023-02-14T01:44:16.833Z,0.50
2023-02-14T01:46:45.646Z,0.40
2023-02-14T01:49:20.796Z,0.30
2023-02-14T01:51:55.604Z,0.20
2023-02-14T01:54:26.051Z,0.00
2023-02-14T01:56:59.589Z,-0.10
2023-02-14T01:59:31.209Z,-0.10
2023-02-14T02:01:58.368Z,-0.10
2023-02-14T02:04:32.214Z,-0.20
2023-02-14T02:07:02.977Z,-0.20
2023-02-14T02:09:40.663Z,-0.20
2023-02-14T02:12:07.673Z,-0.20
2023-02-14T02:14:35.193Z,-0.20
2023-02-14T02:17:13.802Z,-0.20
2023-02-14T02:20:18.332Z,-0.30
2023-02-14T02:22:45.286Z,-0.30
2023-02-14T02:25:30.435Z,-0.20
2023-02-14T02:28:31.064Z,-0.10
2023-02-14T02:31:11.592Z,0.10
2023-02-14T02:34:03.418Z,0.00
2023-02-14T02:36:58.000Z,-0.10
2023-02-14T02:39:34.625Z,-0.20
2023-02-14T02:42:12.974Z,-0.20
2023-02-14T02:45:03.790Z,-0.40
2023-02-14T02:47:49.925Z,-0.30
2023-02-14T02:50:47.674Z,-0.40
2023-02-14T02:53:36.944Z,-0.40
2023-02-14T02:56:28.647Z,-0.50
2023-02-14T02:59:20.700Z,-0.60
2023-02-14T03:02:13.933Z,-0.60
2023-02-14T03:04:55.828Z,-0.50
2023-02-14T03:07:39.114Z,-0.50
2023-02-14T03:10:16.326Z,-0.50
2023-02-14T03:13:06.234Z,-0.50
2023-02-14T03:15:39.352Z,-0.50
2023-02-14T03:18:34.537Z,-0.40
2023-02-14T03:21:26.737Z,-0.30
2023-02-14T03:24:30.484Z,-0.20
2023-02-14T03:27:24.145Z,-0.10
2023-02-14T03:30:00.528Z,-0.20
2023-02-14T03:32:36.788Z,-0.30
2023-02-14T03:35:17.440Z,-0.40
2023-02-14T03:37:52.910Z,-0.50
2023-02-14T03:40:27.420Z,-0.60
2023-02-14T03:43:22.237Z,-0.60
2023-02-14T03:45:55.098Z,-0.60
2023-02-14T03:48:24.932Z,-0.70
2023-02-14T03:50:54.017Z,-0.70
2023-02-14T03:53:25.517Z,-0.70
2023-02-14T03:56:14.925Z,-0.70
2023-02-14T03:58:47.226Z,-0.70
2023-02-14T04:01:20.931Z,-0.80
2023-02-14T04:03:48.839Z,-0.80
2023-02-14T04:06:18.901Z,-0.90
2023-02-14T04:08:46.233Z,-0.90
2023-02-14T04:11:13.343Z,-0.90
2023-02-14T04:13:40.361Z,-0.90
2023-02-14T04:16:07.671Z,-0.80
2023-02-14T04:18:53.454Z,-0.80
2023-02-14T04:21:20.463Z,-0.80
2023-02-14T04:23:47.248Z,-0.80
2023-02-14T04:26:14.273Z,-0.70
2023-02-14T04:28:41.195Z,-0.70
2023-02-14T04:31:08.167Z,-0.70
2023-02-14T04:33:35.198Z,-0.80
2023-02-14T04:36:02.140Z,-0.80
2023-02-14T04:38:29.306Z,-0.90
2023-02-14T04:40:56.185Z,-0.90
2023-02-14T04:43:23.029Z,-1.00
2023-02-14T04:45:49.844Z,-1.00
2023-02-14T04:48:16.664Z,-1.00
2023-02-14T04:50:43.541Z,-1.00
2023-02-14T04:53:10.488Z,-0.90
2023-02-14T04:55:37.349Z,-0.90
2023-02-14T04:58:04.227Z,-0.90
2023-02-14T05:00:31.178Z,-1.00
2023-02-14T05:02:58.034Z,-1.00
2023-02-14T05:05:24.911Z,-1.10
2023-02-14T05:07:51.787Z,-1.10
2023-02-14T05:10:18.802Z,-1.20
2023-02-14T05:12:45.670Z,-1.10
2023-02-14T05:15:12.504Z,-1.10
2023-02-14T05:17:39.379Z,-1.10
2023-02-14T05:20:07.094Z,-1.30
2023-02-14T05:22:33.976Z,-1.30
2023-02-14T05:25:00.912Z,-1.20
2023-02-14T05:27:27.780Z,-1.30
2023-02-14T05:29:54.696Z,-1.30
2023-02-14T05:32:21.640Z,-1.30
2023-02-14T05:34:48.492Z,-1.30
2023-02-14T05:37:15.315Z,-1.20
2023-02-14T05:39:42.195Z,-1.20
2023-02-14T05:42:11.674Z,-1.10
2023-02-14T05:44:38.502Z,-1.10
2023-02-14T05:47:05.448Z,-1.10
2023-02-14T05:49:32.289Z,-1.10
2023-02-14T05:51:59.149Z,-1.10
2023-02-14T05:54:25.966Z,-1.20
2023-02-14T05:56:52.787Z,-1.10
2023-02-14T05:59:19.707Z,-1.10
2023-02-14T06:01:46.605Z,-1.20
2023-02-14T06:04:13.518Z,-1.20
2023-02-14T06:06:40.535Z,-1.30
2023-02-14T06:09:07.440Z,-1.30
2023-02-14T06:11:34.354Z,-1.30
2023-02-14T06:14:01.218Z,-1.20
2023-02-14T06:16:28.162Z,-1.20
2023-02-14T06:18:55.067Z,-1.10
2023-02-14T06:21:21.910Z,-1.20
2023-02-14T06:23:48.794Z,-1.20
2023-02-14T06:26:15.613Z,-1.30
2023-02-14T06:28:42.860Z,-1.40
2023-02-14T06:31:17.519Z,-1.30
2023-02-14T06:33:44.517Z,-1.40
2023-02-14T06:36:11.400Z,-1.40
2023-02-14T06:38:38.324Z,-1.40
2023-02-14T06:41:06.991Z,-1.40
2023-02-14T06:43:34.944Z,-1.40
2023-02-14T06:46:02.384Z,-1.40
2023-02-14T06:48:29.643Z,-1.40
2023-02-14T06:50:56.571Z,-1.40
2023-02-14T06:53:23.377Z,-1.30
2023-02-14T06:55:50.327Z,-1.30
2023-02-14T06:58:17.228Z,-1.40
2023-02-14T07:00:44.145Z,-1.50
2023-02-14T07:03:11.042Z,-1.60
2023-02-14T07:05:37.960Z,-1.60
2023-02-14T07:08:05.096Z,-1.60
2023-02-14T07:10:32.957Z,-1.70
2023-02-14T07:13:00.569Z,-1.70
2023-02-14T07:15:27.394Z,-1.70
2023-02-14T07:17:54.345Z,-1.60
2023-02-14T07:20:21.533Z,-1.50
2023-02-14T07:22:48.408Z,-1.40
2023-02-14T07:25:15.211Z,-1.40
2023-02-14T07:27:42.265Z,-1.30
2023-02-14T07:30:10.746Z,-1.30
2023-02-14T07:32:38.594Z,-1.20
2023-02-14T07:35:06.126Z,-1.20
2023-02-14T07:37:34.039Z,-1.10
2023-02-14T07:40:01.847Z,-1.00
2023-02-14T07:42:28.698Z,-1.00
2023-02-14T07:44:55.611Z,-0.80
2023-02-14T07:47:22.529Z,-0.70
2023-02-14T07:49:49.363Z,-0.50
2023-02-14T07:52:16.349Z,-0.50
2023-02-14T07:54:43.315Z,-0.40
2023-02-14T07:57:10.272Z,-0.40
2023-02-14T07:59:37.086Z,-0.30
2023-02-14T08:02:04.110Z,-0.30
2023-02-14T08:04:32.936Z,-0.30
2023-02-14T08:07:00.710Z,-0.20
2023-02-14T08:09:27.688Z,-0.30
2023-02-14T08:12:15.444Z,-0.20
2023-02-14T08:14:43.510Z,-0.20
2023-02-14T08:17:13.360Z,-0.10
2023-02-14T08:19:40.747Z,-0.10
2023-02-14T08:22:08.393Z,0.00
2023-02-14T08:24:35.248Z,0.00
2023-02-14T08:27:02.141Z,0.10
2023-02-14T08:29:29.140Z,0.20
2023-02-14T08:31:56.105Z,0.30
2023-02-14T08:34:23.102Z,0.30
2023-02-14T08:36:49.893Z,0.30
2023-02-14T08:39:16.686Z,0.40
2023-02-14T08:41:43.528Z,0.50
2023-02-14T08:44:10.412Z,0.50
2023-02-14T08:46:37.364Z,0.50
2023-02-14T08:49:04.298Z,0.60
2023-02-14T08:51:31.145Z,0.60
2023-02-14T08:53:57.998Z,0.70
2023-02-14T08:56:25.066Z,0.80
2023-02-14T08:58:53.373Z,0.80
2023-02-14T09:01:20.773Z,0.90
2023-02-14T09:03:47.766Z,0.90
2023-02-14T09:06:17.551Z,1.00
2023-02-14T09:08:45.176Z,1.10
2023-02-14T09:11:18.808Z,1.30
2023-02-14T09:13:46.614Z,1.40
2023-02-14T09:16:17.334Z,1.50
2023-02-14T09:18:45.115Z,1.80
2023-02-14T09:21:15.627Z,2.00
2023-02-14T09:23:42.833Z,2.10
2023-02-14T09:26:12.247Z,2.30
2023-02-14T09:28:40.141Z,2.40
2023-02-14T09:31:11.705Z,2.60
2023-02-14T09:33:38.951Z,2.90
2023-02-14T09:36:12.114Z,3.10
2023-02-14T09:38:39.384Z,3.30
2023-02-14T09:41:10.185Z,3.50
2023-02-14T09:43:44.947Z,3.60
2023-02-14T09:46:15.933Z,3.80
2023-02-14T09:48:46.886Z,4.00
2023-02-14T09:51:20.253Z,4.10
2023-02-14T09:53:57.532Z,4.30
2023-02-14T09:56:58.874Z,4.50
2023-02-14T09:59:35.813Z,4.60
2023-02-14T10:02:20.847Z,4.70
2023-02-14T10:04:59.839Z,4.80
2023-02-14T10:07:40.574Z,4.80
2023-02-14T10:10:13.364Z,5.00
2023-02-14T10:13:15.220Z,5.00
2023-02-14T10:15:45.933Z,5.30
2023-02-14T10:18:22.530Z,5.60
2023-02-14T10:21:00.141Z,5.90
2023-02-14T10:23:38.279Z,6.10
2023-02-14T10:26:14.617Z,6.40
2023-02-14T10:28:46.934Z,6.70
2023-02-14T10:31:32.116Z,7.30
2023-02-14T10:34:17.817Z,7.60
2023-02-14T10:37:11.745Z,8.00
2023-02-14T10:40:02.432Z,8.20
2023-02-14T10:42:38.525Z,8.20
2023-02-14T10:45:16.707Z,8.30
2023-02-14T10:48:00.949Z,8.60
2023-02-14T10:51:00.495Z,9.20
2023-02-14T10:53:49.327Z,9.60
2023-02-14T10:56:32.199Z,10.10
2023-02-14T10:59:04.148Z,10.80
2023-02-14T11:01:31.603Z,11.20
2023-02-14T11:04:04.205Z,11.30
2023-02-14T11:06:31.554Z,11.70
2023-02-14T11:08:58.703Z,12.00
2023-02-14T11:11:48.716Z,12.20
2023-02-14T11:14:32.385Z,12.30
2023-02-14T11:17:00.759Z,12.50
2023-02-14T11:19:36.080Z,12.60
2023-02-14T11:22:04.435Z,12.60
2023-02-14T11:24:39.377Z,12.80
2023-02-14T11:27:12.221Z,12.60
2023-02-14T11:29:39.055Z,12.70
2023-02-14T11:32:21.647Z,13.10
2023-02-14T11:34:59.760Z,13.10
2023-02-14T11:37:29.848Z,13.30
2023-02-14T11:39:59.546Z,13.30
2023-02-14T11:42:44.472Z,13.40
2023-02-14T11:45:35.067Z,13.10
2023-02-14T11:48:39.514Z,13.10
2023-02-14T11:51:15.668Z,13.40
2023-02-14T11:53:47.587Z,13.50
2023-02-14T11:56:20.044Z,13.40
2023-02-14T11:58:55.565Z,13.40
2023-02-14T12:01:32.169Z,13.50
2023-02-14T12:04:06.220Z,13.80
2023-02-14T12:06:35.661Z,14.00
2023-02-14T12:09:27.670Z,14.00
2023-02-14T12:11:59.862Z,13.70
2023-02-14T12:14:31.940Z,13.70
2023-02-14T12:17:12.648Z,13.90
2023-02-14T12:19:49.404Z,13.90
2023-02-14T12:22:21.088Z,13.90
2023-02-14T12:25:02.790Z,14.20
2023-02-14T12:27:51.073Z,14.50
2023-02-14T12:30:23.038Z,14.60
2023-02-14T12:32:52.875Z,14.90
2023-02-14T12:35:47.124Z,14.80
2023-02-14T12:38:29.353Z,14.90
2023-02-14T12:41:24.311Z,15.00
2023-02-14T12:43:55.417Z,15.10
2023-02-14T12:46:56.612Z,15.30
2023-02-14T12:49:31.677Z,15.80
2023-02-14T12:52:23.239Z,16.10
2023-02-14T12:55:04.437Z,16.20
2023-02-14T12:58:03.191Z,16.20
2023-02-14T13:01:01.647Z,15.90
2023-02-14T13:03:40.348Z,15.80
2023-02-14T13:06:22.066Z,16.00
2023-02-14T13:09:02.690Z,16.20
2023-02-14T13:12:04.619Z,16.00
2023-02-14T13:15:12.869Z,16.00
2023-02-14T13:17:55.412Z,16.00
2023-02-14T13:20:41.456Z,16.30
2023-02-14T13:23:30.523Z,16.60
2023-02-14T13:26:22.532Z,16.10
2023-02-14T13:28:52.650Z,15.90
2023-02-14T13:31:20.803Z,16.00
2023-02-14T13:33:54.141Z,15.70
2023-02-14T13:36:22.016Z,15.60
2023-02-14T13:41:28.329Z,15.60
2023-02-14T13:44:01.602Z,15.80
2023-02-14T13:46:35.238Z,15.80
2023-02-14T13:49:04.958Z,16.10
2023-02-14T13:51:46.603Z,16.30
2023-02-14T13:54:45.018Z,16.20
2023-02-14T13:57:34.980Z,16.20
2023-02-14T14:00:19.953Z,16.40
2023-02-14T14:02:47.987Z,16.50
2023-02-14T14:05:30.241Z,16.40
2023-02-14T14:08:17.706Z,16.50
2023-02-14T14:11:05.230Z,16.20
2023-02-14T14:13:41.064Z,16.00
2023-02-14T14:16:27.872Z,16.10
2023-02-14T14:19:09.574Z,15.70
2023-02-14T14:21:47.355Z,16.00
2023-02-14T14:24:24.230Z,16.00
2023-02-14T14:27:03.863Z,16.00
2023-02-14T14:29:31.710Z,16.00
2023-02-14T14:31:58.681Z,16.50
2023-02-14T14:34:28.846Z,16.90
2023-02-14T14:37:07.651Z,17.10
2023-02-14T14:39:35.852Z,16.80
2023-02-14T14:42:13.283Z,16.80
2023-02-14T14:44:48.061Z,15.80
2023-02-14T14:47:22.417Z,16.10
2023-02-14T14:49:49.408Z,16.40
2023-02-14T14:52:33.971Z,16.30
2023-02-14T14:55:02.173Z,16.30
2023-02-14T14:57:29.140Z,16.40
2023-02-14T15:00:17.674Z,16.60
2023-02-14T15:02:56.797Z,16.70
2023-02-14T15:05:28.287Z,16.90
2023-02-14T15:07:55.234Z,16.40
2023-02-14T15:10:28.369Z,15.90
2023-02-14T15:13:17.099Z,15.80
2023-02-14T15:15:50.360Z,15.30
2023-02-14T15:18:18.013Z,15.30
2023-02-14T15:20:50.404Z,15.70
2023-02-14T15:23:20.804Z,15.40
2023-02-14T15:25:49.325Z,15.10
2023-02-14T15:28:34.921Z,15.30
2023-02-14T15:31:05.218Z,15.40
2023-02-14T15:33:33.521Z,14.70
2023-02-14T15:36:07.988Z,15.00
2023-02-14T15:38:39.763Z,15.10
2023-02-14T15:41:07.690Z,14.90
2023-02-14T15:43:37.842Z,14.60
2023-02-14T15:46:37.055Z,14.40
2023-02-14T15:49:10.163Z,13.90
2023-02-14T15:51:38.652Z,13.90
2023-02-14T15:54:22.718Z,13.60
2023-02-14T15:56:52.856Z,13.50
2023-02-14T15:59:30.983Z,13.40
2023-02-14T16:02:02.201Z,13.30
2023-02-14T16:04:33.650Z,13.40
2023-02-14T16:07:07.414Z,13.30
2023-02-14T16:09:34.703Z,12.90
2023-02-14T16:12:21.660Z,12.60
2023-02-14T16:15:16.887Z,12.30
2023-02-14T16:17:44.569Z,11.70
2023-02-14T16:20:27.291Z,11.10
2023-02-14T16:23:22.379Z,10.60
2023-02-14T16:25:49.551Z,10.10
2023-02-14T16:28:16.903Z,9.80
2023-02-14T16:30:46.116Z,9.50
2023-02-14T16:33:22.359Z,9.40
2023-02-14T16:35:50.267Z,9.20
2023-02-14T16:38:21.743Z,8.90
2023-02-14T16:40:51.047Z,8.50
2023-02-14T16:43:20.179Z,8.20
2023-02-14T16:45:47.615Z,7.90
2023-02-14T16:48:15.975Z,7.60
2023-02-14T16:50:43.998Z,7.40
2023-02-14T16:53:29.348Z,7.30
2023-02-14T16:55:57.673Z,7.00
2023-02-14T16:58:32.433Z,6.70
2023-02-14T17:00:59.671Z,6.50
2023-02-14T17:03:26.646Z,6.30
2023-02-14T17:05:55.681Z,6.10
2023-02-14T17:08:22.555Z,5.90
2023-02-14T17:10:50.361Z,5.70
2023-02-14T17:13:21.610Z,5.60
2023-02-14T17:15:49.636Z,5.30
2023-02-14T17:18:19.768Z,5.10
2023-02-14T17:20:47.068Z,4.90
2023-02-14T17:23:13.970Z,4.80
2023-02-14T17:25:41.147Z,4.60
2023-02-14T17:28:08.019Z,4.50
2023-02-14T17:30:35.450Z,4.50
2023-02-14T17:33:02.327Z,4.40
2023-02-14T17:35:29.995Z,4.30
2023-02-14T17:37:56.924Z,4.30
2023-02-14T17:40:23.833Z,4.50
2023-02-14T17:42:50.646Z,4.70
2023-02-14T17:45:17.605Z,4.60
2023-02-14T17:47:45.226Z,4.50
2023-02-14T17:50:13.293Z,4.40
2023-02-14T17:52:40.694Z,4.70
2023-02-14T17:55:09.048Z,5.30
2023-02-14T17:57:36.760Z,5.50
2023-02-14T18:00:05.784Z,5.70
2023-02-14T18:02:40.276Z,5.70
2023-02-14T18:05:07.720Z,5.60
2023-02-14T18:07:34.556Z,5.50
2023-02-14T18:10:01.468Z,5.50
2023-02-14T18:12:28.387Z,5.60
2023-02-14T18:14:56.163Z,5.60
2023-02-14T18:17:23.112Z,5.60
2023-02-14T18:19:50.115Z,5.50
2023-02-14T18:22:17.000Z,5.50
2023-02-14T18:24:43.945Z,5.50
2023-02-14T18:27:10.936Z,5.40
2023-02-14T18:29:39.364Z,5.20
2023-02-14T18:32:06.270Z,4.90
2023-02-14T18:34:37.237Z,4.60
2023-02-14T18:37:04.619Z,4.50
2023-02-14T18:39:32.798Z,4.80
2023-02-14T18:42:00.986Z,4.90
2023-02-14T18:44:28.501Z,4.90
2023-02-14T18:46:55.920Z,4.70
2023-02-14T18:49:23.256Z,4.50
2023-02-14T18:51:50.736Z,4.50
2023-02-14T18:54:17.789Z,4.50
2023-02-14T18:56:44.665Z,4.60
2023-02-14T18:59:13.389Z,4.60
2023-02-14T19:01:43.605Z,4.60
2023-02-14T19:04:12.278Z,4.80
2023-02-14T19:06:40.997Z,5.00
2023-02-14T19:09:11.502Z,5.10
2023-02-14T19:11:38.863Z,5.20
2023-02-14T19:14:10.105Z,5.40
2023-02-14T19:16:43.761Z,5.50
2023-02-14T19:19:11.257Z,5.60
2023-02-14T19:21:38.289Z,5.50
2023-02-14T19:24:07.162Z,5.60
2023-02-14T19:26:39.826Z,5.60
2023-02-14T19:29:10.773Z,5.50
2023-02-14T19:31:40.351Z,5.50
2023-02-14T19:34:08.785Z,5.40
2023-02-14T19:36:37.613Z,5.50
2023-02-14T19:39:05.146Z,5.50
2023-02-14T19:41:34.580Z,5.60
2023-02-14T19:44:04.733Z,5.50
2023-02-14T19:46:32.203Z,5.50
2023-02-14T19:49:00.565Z,5.50
2023-02-14T19:51:30.171Z,5.60
2023-02-14T19:53:58.375Z,5.70
2023-02-14T19:56:28.145Z,5.70
2023-02-14T19:58:56.173Z,5.50
2023-02-14T20:01:27.259Z,5.30
2023-02-14T20:03:54.579Z,5.30
2023-02-14T20:06:22.666Z,5.30
2023-02-14T20:08:50.347Z,5.30
2023-02-14T20:11:50.181Z,5.10
2023-02-14T20:14:38.405Z,4.90
2023-02-14T20:17:15.962Z,4.80
2023-02-14T20:19:42.835Z,4.70
2023-02-14T20:22:09.669Z,4.50
2023-02-14T20:24:36.535Z,4.50
2023-02-14T20:27:03.458Z,4.50
2023-02-14T20:29:30.727Z,4.50
2023-02-14T20:31:59.990Z,4.30
2023-02-14T20:34:27.544Z,4.10
2023-02-14T20:36:55.845Z,4.00
2023-02-14T20:39:27.112Z,3.80
2023-02-14T20:41:54.221Z,3.60
2023-02-14T20:44:21.813Z,3.50
2023-02-14T20:46:51.558Z,3.30
2023-02-14T20:49:20.188Z,3.10
2023-02-14T20:51:49.694Z,3.00
2023-02-14T20:54:22.015Z,2.90
2023-02-14T20:56:50.751Z,2.90
2023-02-14T20:59:19.344Z,2.80
2023-02-14T21:01:46.412Z,2.60
2023-02-14T21:04:14.160Z,2.50
2023-02-14T21:06:41.060Z,2.40
2023-02-14T21:09:08.637Z,2.30
2023-02-14T21:11:35.605Z,2.10
2023-02-14T21:14:02.619Z,2.00
2023-02-14T21:16:30.425Z,1.90
2023-02-14T21:18:59.466Z,1.80
2023-02-14T21:21:32.518Z,1.80
2023-02-14T21:24:06.879Z,1.70
2023-02-14T21:26:34.028Z,1.50
2023-02-14T21:29:01.671Z,1.40
2023-02-14T21:31:28.870Z,1.40
2023-02-14T21:33:59.245Z,1.50
2023-02-14T21:36:28.844Z,1.70
2023-02-14T21:38:58.387Z,1.70
2023-02-14T21:41:27.910Z,1.60
2023-02-14T21:43:58.609Z,1.40
2023-02-14T21:46:29.406Z,1.40
2023-02-14T21:49:19.973Z,1.50
2023-02-14T21:51:47.733Z,1.50
2023-02-14T21:54:15.350Z,1.50
2023-02-14T21:56:42.684Z,1.60
2023-02-14T21:59:10.272Z,1.60
2023-02-14T22:01:39.945Z,1.50
2023-02-14T22:04:10.413Z,1.30
2023-02-14T22:06:39.367Z,1.10
2023-02-14T22:09:06.480Z,0.90
2023-02-14T22:11:33.811Z,0.80
2023-02-14T22:14:01.014Z,0.80
2023-02-14T22:16:28.032Z,1.00
2023-02-14T22:18:55.084Z,1.00
2023-02-14T22:21:26.616Z,0.90
2023-02-14T22:23:55.080Z,0.80
2023-02-14T22:26:27.652Z,0.70
2023-02-14T22:28:58.094Z,0.50
2023-02-14T22:31:27.531Z,0.40
2023-02-14T22:33:55.009Z,0.40
2023-02-14T22:36:22.321Z,0.40
2023-02-14T22:38:49.351Z,0.40
2023-02-14T22:41:19.002Z,0.40
2023-02-14T22:43:46.323Z,0.40
2023-02-14T22:46:21.510Z,0.60
2023-02-14T22:48:49.824Z,0.70
2023-02-14T22:51:24.335Z,1.10
2023-02-14T22:53:53.359Z,1.30
2023-02-14T22:56:25.984Z,1.00
2023-02-14T22:58:57.758Z,0.80
2023-02-14T23:01:25.654Z,0.60
2023-02-14T23:03:57.305Z,0.40
2023-02-14T23:06:26.261Z,0.30
2023-02-14T23:08:54.201Z,0.20
2023-02-14T23:11:24.654Z,0.30
2023-02-14T23:14:10.021Z,0.30
2023-02-14T23:16:55.448Z,0.20
2023-02-14T23:19:44.473Z,0.10
2023-02-14T23:22:14.692Z,0.10
2023-02-14T23:24:42.203Z,0.00
2023-02-14T23:27:09.827Z,-0.10
2023-02-14T23:29:37.416Z,-0.20
2023-02-14T23:32:05.800Z,-0.20
2023-02-14T23:34:34.915Z,-0.20
2023-02-14T23:37:02.092Z,-0.10
2023-02-14T23:39:29.225Z,-0.10
2023-02-14T23:41:56.143Z,-0.20
2023-02-14T23:44:25.823Z,-0.30
2023-02-14T23:46:55.926Z,-0.50
2023-02-14T23:49:23.803Z,-0.50
2023-02-14T23:51:51.967Z,-0.50
2023-02-14T23:54:19.883Z,-0.50
2023-02-14T23:56:47.084Z,-0.40
2023-02-14T23:59:15.681Z,-0.50
